sensor_id;sensor_type;location;lat;lon;timestamp;P1;durP1;ratioP1;P2;durP2;ratioP2
11998;SDS011;40817;51.520;9.954;2022-10-31T00:00:58;9.02;;;4.20;;
11998;SDS011;40817;51.520;9.954;2022-10-31T00:03:27;11.90;;;4.70;;
11998;SDS011;40817;51.520;9.954;2022-10-31T00:05:54;7.30;;;3.88;;
11998;SDS011;40817;51.520;9.954;2022-10-31T00:08:22;9.10;;;3.85;;
11998;SDS011;40817;51.520;9.954;2022-10-31T00:10:51;8.35;;;3.80;;
11998;SDS011;40817;51.520;9.954;2022-10-31T00:13:19;9.45;;;4.65;;
11998;SDS011;40817;51.520;9.954;2022-10-31T00:15:46;9.63;;;5.20;;
11998;SDS011;40817;51.520;9.954;2022-10-31T00:18:14;8.77;;;4.85;;
11998;SDS011;40817;51.520;9.954;2022-10-31T00:20:41;11.02;;;4.90;;
11998;SDS011;40817;51.520;9.954;2022-10-31T00:23:09;11.20;;;5.18;;
11998;SDS011;40817;51.520;9.954;2022-10-31T00:25:38;12.93;;;5.13;;
11998;SDS011;40817;51.520;9.954;2022-10-31T00:28:08;9.02;;;4.30;;
11998;SDS011;40817;51.520;9.954;2022-10-31T00:30:38;9.25;;;4.15;;
11998;SDS011;40817;51.520;9.954;2022-10-31T00:33:05;11.07;;;5.63;;
11998;SDS011;40817;51.520;9.954;2022-10-31T00:35:33;12.65;;;5.65;;
11998;SDS011;40817;51.520;9.954;2022-10-31T00:38:00;11.85;;;4.90;;
11998;SDS011;40817;51.520;9.954;2022-10-31T00:40:28;11.93;;;4.90;;
11998;SDS011;40817;51.520;9.954;2022-10-31T00:42:56;8.40;;;4.88;;
11998;SDS011;40817;51.520;9.954;2022-10-31T00:45:25;11.43;;;5.47;;
11998;SDS011;40817;51.520;9.954;2022-10-31T00:47:53;9.13;;;4.70;;
11998;SDS011;40817;51.520;9.954;2022-10-31T00:50:20;10.73;;;5.55;;
11998;SDS011;40817;51.520;9.954;2022-10-31T00:52:48;12.23;;;6.05;;
11998;SDS011;40817;51.520;9.954;2022-10-31T00:55:16;14.57;;;5.45;;
11998;SDS011;40817;51.520;9.954;2022-10-31T00:57:45;12.43;;;6.78;;
11998;SDS011;40817;51.520;9.954;2022-10-31T01:00:13;19.48;;;10.95;;
11998;SDS011;40817;51.520;9.954;2022-10-31T01:02:43;20.58;;;13.07;;
11998;SDS011;40817;51.520;9.954;2022-10-31T01:05:11;16.88;;;12.10;;
11998;SDS011;40817;51.520;9.954;2022-10-31T01:07:39;17.50;;;10.15;;
11998;SDS011;40817;51.520;9.954;2022-10-31T01:10:09;19.98;;;9.32;;
11998;SDS011;40817;51.520;9.954;2022-10-31T01:12:38;12.57;;;8.10;;
11998;SDS011;40817;51.520;9.954;2022-10-31T01:15:08;16.35;;;8.43;;
11998;SDS011;40817;51.520;9.954;2022-10-31T01:17:37;14.30;;;7.30;;
11998;SDS011;40817;51.520;9.954;2022-10-31T01:20:07;13.52;;;6.55;;
11998;SDS011;40817;51.520;9.954;2022-10-31T01:22:38;14.90;;;7.30;;
11998;SDS011;40817;51.520;9.954;2022-10-31T01:25:06;12.32;;;7.57;;
11998;SDS011;40817;51.520;9.954;2022-10-31T01:27:35;13.68;;;7.95;;
11998;SDS011;40817;51.520;9.954;2022-10-31T01:30:03;11.98;;;7.50;;
11998;SDS011;40817;51.520;9.954;2022-10-31T01:32:33;16.40;;;7.32;;
11998;SDS011;40817;51.520;9.954;2022-10-31T01:35:01;12.45;;;7.22;;
11998;SDS011;40817;51.520;9.954;2022-10-31T01:37:31;9.52;;;5.45;;
11998;SDS011;40817;51.520;9.954;2022-10-31T01:39:59;12.15;;;5.93;;
11998;SDS011;40817;51.520;9.954;2022-10-31T01:42:27;14.95;;;6.60;;
11998;SDS011;40817;51.520;9.954;2022-10-31T01:44:58;9.85;;;5.25;;
11998;SDS011;40817;51.520;9.954;2022-10-31T01:47:38;13.02;;;5.43;;
11998;SDS011;40817;51.520;9.954;2022-10-31T01:50:13;13.65;;;5.85;;
11998;SDS011;40817;51.520;9.954;2022-10-31T01:52:56;14.38;;;5.57;;
11998;SDS011;40817;51.520;9.954;2022-10-31T01:55:26;13.68;;;6.07;;
11998;SDS011;40817;51.520;9.954;2022-10-31T01:57:59;11.60;;;5.38;;
11998;SDS011;40817;51.520;9.954;2022-10-31T02:00:33;9.48;;;4.78;;
11998;SDS011;40817;51.520;9.954;2022-10-31T02:03:01;11.55;;;5.70;;
11998;SDS011;40817;51.520;9.954;2022-10-31T02:05:29;15.43;;;5.75;;
11998;SDS011;40817;51.520;9.954;2022-10-31T02:08:01;16.27;;;5.75;;
11998;SDS011;40817;51.520;9.954;2022-10-31T02:10:35;8.57;;;5.20;;
11998;SDS011;40817;51.520;9.954;2022-10-31T02:13:04;12.02;;;4.90;;
11998;SDS011;40817;51.520;9.954;2022-10-31T02:15:34;11.18;;;5.57;;
11998;SDS011;40817;51.520;9.954;2022-10-31T02:18:04;9.20;;;5.18;;
11998;SDS011;40817;51.520;9.954;2022-10-31T02:20:35;11.43;;;4.70;;
11998;SDS011;40817;51.520;9.954;2022-10-31T02:23:21;11.20;;;4.90;;
11998;SDS011;40817;51.520;9.954;2022-10-31T02:26:38;14.32;;;4.93;;
11998;SDS011;40817;51.520;9.954;2022-10-31T02:32:38;11.38;;;4.70;;
11998;SDS011;40817;51.520;9.954;2022-10-31T02:35:21;8.82;;;4.30;;
11998;SDS011;40817;51.520;9.954;2022-10-31T02:38:09;9.27;;;4.38;;
11998;SDS011;40817;51.520;9.954;2022-10-31T02:40:53;8.10;;;4.32;;
11998;SDS011;40817;51.520;9.954;2022-10-31T02:43:46;10.88;;;4.75;;
11998;SDS011;40817;51.520;9.954;2022-10-31T02:46:27;11.80;;;6.72;;
11998;SDS011;40817;51.520;9.954;2022-10-31T02:49:03;16.00;;;9.18;;
11998;SDS011;40817;51.520;9.954;2022-10-31T02:51:39;11.45;;;6.38;;
11998;SDS011;40817;51.520;9.954;2022-10-31T02:54:15;21.15;;;10.52;;
11998;SDS011;40817;51.520;9.954;2022-10-31T02:56:46;20.33;;;12.45;;
11998;SDS011;40817;51.520;9.954;2022-10-31T02:59:17;23.98;;;13.48;;
11998;SDS011;40817;51.520;9.954;2022-10-31T03:01:48;20.95;;;12.50;;
11998;SDS011;40817;51.520;9.954;2022-10-31T03:04:53;23.48;;;10.18;;
11998;SDS011;40817;51.520;9.954;2022-10-31T03:07:42;21.98;;;10.50;;
11998;SDS011;40817;51.520;9.954;2022-10-31T03:10:24;16.23;;;9.98;;
11998;SDS011;40817;51.520;9.954;2022-10-31T03:13:08;17.15;;;8.38;;
11998;SDS011;40817;51.520;9.954;2022-10-31T03:15:43;19.10;;;8.32;;
11998;SDS011;40817;51.520;9.954;2022-10-31T03:18:15;13.90;;;7.43;;
11998;SDS011;40817;51.520;9.954;2022-10-31T03:20:55;16.92;;;7.70;;
11998;SDS011;40817;51.520;9.954;2022-10-31T03:23:30;12.57;;;6.82;;
11998;SDS011;40817;51.520;9.954;2022-10-31T03:25:59;11.43;;;6.07;;
11998;SDS011;40817;51.520;9.954;2022-10-31T03:28:30;18.77;;;7.63;;
11998;SDS011;40817;51.520;9.954;2022-10-31T03:31:08;14.25;;;7.30;;
11998;SDS011;40817;51.520;9.954;2022-10-31T03:33:39;14.68;;;7.10;;
11998;SDS011;40817;51.520;9.954;2022-10-31T03:36:10;12.65;;;6.65;;
11998;SDS011;40817;51.520;9.954;2022-10-31T03:38:42;11.52;;;6.22;;
11998;SDS011;40817;51.520;9.954;2022-10-31T03:41:13;10.65;;;5.60;;
11998;SDS011;40817;51.520;9.954;2022-10-31T03:43:48;10.23;;;5.40;;
11998;SDS011;40817;51.520;9.954;2022-10-31T03:46:23;11.60;;;5.80;;
11998;SDS011;40817;51.520;9.954;2022-10-31T03:48:51;9.30;;;5.40;;
11998;SDS011;40817;51.520;9.954;2022-10-31T03:51:22;10.55;;;4.88;;
11998;SDS011;40817;51.520;9.954;2022-10-31T03:53:57;9.40;;;5.07;;
11998;SDS011;40817;51.520;9.954;2022-10-31T03:56:35;11.60;;;5.00;;
11998;SDS011;40817;51.520;9.954;2022-10-31T03:59:10;16.15;;;5.15;;
11998;SDS011;40817;51.520;9.954;2022-10-31T04:01:45;10.27;;;4.78;;
11998;SDS011;40817;51.520;9.954;2022-10-31T04:04:19;9.98;;;5.40;;
11998;SDS011;40817;51.520;9.954;2022-10-31T04:06:49;16.00;;;5.95;;
11998;SDS011;40817;51.520;9.954;2022-10-31T04:09:19;9.18;;;5.00;;
11998;SDS011;40817;51.520;9.954;2022-10-31T04:11:50;7.68;;;4.60;;
11998;SDS011;40817;51.520;9.954;2022-10-31T04:14:23;11.95;;;5.55;;
11998;SDS011;40817;51.520;9.954;2022-10-31T04:16:54;10.32;;;5.50;;
11998;SDS011;40817;51.520;9.954;2022-10-31T04:19:22;9.88;;;5.38;;
11998;SDS011;40817;51.520;9.954;2022-10-31T04:21:51;9.05;;;5.10;;
11998;SDS011;40817;51.520;9.954;2022-10-31T04:24:18;9.63;;;5.10;;
11998;SDS011;40817;51.520;9.954;2022-10-31T04:26:46;8.63;;;4.40;;
11998;SDS011;40817;51.520;9.954;2022-10-31T04:29:14;8.65;;;4.72;;
11998;SDS011;40817;51.520;9.954;2022-10-31T04:31:42;6.97;;;4.38;;
11998;SDS011;40817;51.520;9.954;2022-10-31T04:34:09;11.48;;;4.90;;
11998;SDS011;40817;51.520;9.954;2022-10-31T04:36:37;11.43;;;4.70;;
11998;SDS011;40817;51.520;9.954;2022-10-31T04:39:06;10.07;;;5.63;;
11998;SDS011;40817;51.520;9.954;2022-10-31T04:41:34;9.07;;;5.00;;
11998;SDS011;40817;51.520;9.954;2022-10-31T04:44:01;8.63;;;5.05;;
11998;SDS011;40817;51.520;9.954;2022-10-31T04:46:29;9.07;;;4.65;;
11998;SDS011;40817;51.520;9.954;2022-10-31T04:48:57;10.60;;;4.88;;
11998;SDS011;40817;51.520;9.954;2022-10-31T04:51:24;10.05;;;5.22;;
11998;SDS011;40817;51.520;9.954;2022-10-31T04:53:52;11.98;;;5.68;;
11998;SDS011;40817;51.520;9.954;2022-10-31T04:56:21;10.13;;;5.10;;
11998;SDS011;40817;51.520;9.954;2022-10-31T04:58:49;11.07;;;5.22;;
11998;SDS011;40817;51.520;9.954;2022-10-31T05:01:16;10.55;;;5.63;;
11998;SDS011;40817;51.520;9.954;2022-10-31T05:03:44;9.70;;;5.63;;
11998;SDS011;40817;51.520;9.954;2022-10-31T05:06:12;11.43;;;5.85;;
11998;SDS011;40817;51.520;9.954;2022-10-31T05:08:39;12.32;;;5.78;;
11998;SDS011;40817;51.520;9.954;2022-10-31T05:11:07;16.10;;;5.35;;
11998;SDS011;40817;51.520;9.954;2022-10-31T05:13:36;11.77;;;5.53;;
11998;SDS011;40817;51.520;9.954;2022-10-31T05:16:04;10.52;;;5.53;;
11998;SDS011;40817;51.520;9.954;2022-10-31T05:18:32;13.88;;;5.95;;
11998;SDS011;40817;51.520;9.954;2022-10-31T05:21:00;14.15;;;5.57;;
11998;SDS011;40817;51.520;9.954;2022-10-31T05:23:27;12.02;;;5.82;;
11998;SDS011;40817;51.520;9.954;2022-10-31T05:25:55;10.50;;;5.25;;
11998;SDS011;40817;51.520;9.954;2022-10-31T05:28:22;14.13;;;5.72;;
11998;SDS011;40817;51.520;9.954;2022-10-31T05:30:51;10.15;;;5.47;;
11998;SDS011;40817;51.520;9.954;2022-10-31T05:33:19;9.05;;;5.68;;
11998;SDS011;40817;51.520;9.954;2022-10-31T05:35:47;14.80;;;6.57;;
11998;SDS011;40817;51.520;9.954;2022-10-31T05:38:15;10.98;;;5.93;;
11998;SDS011;40817;51.520;9.954;2022-10-31T05:40:42;9.30;;;5.22;;
11998;SDS011;40817;51.520;9.954;2022-10-31T05:43:10;9.15;;;5.30;;
11998;SDS011;40817;51.520;9.954;2022-10-31T05:45:37;7.97;;;5.28;;
11998;SDS011;40817;51.520;9.954;2022-10-31T05:48:07;11.45;;;5.53;;
11998;SDS011;40817;51.520;9.954;2022-10-31T05:50:35;13.20;;;5.40;;
11998;SDS011;40817;51.520;9.954;2022-10-31T05:53:03;10.52;;;6.05;;
11998;SDS011;40817;51.520;9.954;2022-10-31T05:55:31;16.85;;;6.43;;
11998;SDS011;40817;51.520;9.954;2022-10-31T05:57:59;11.73;;;5.18;;
11998;SDS011;40817;51.520;9.954;2022-10-31T06:00:27;11.52;;;5.95;;
11998;SDS011;40817;51.520;9.954;2022-10-31T06:02:58;11.45;;;5.60;;
11998;SDS011;40817;51.520;9.954;2022-10-31T06:05:27;10.63;;;5.53;;
11998;SDS011;40817;51.520;9.954;2022-10-31T06:07:56;10.10;;;5.43;;
11998;SDS011;40817;51.520;9.954;2022-10-31T06:10:24;10.90;;;6.18;;
11998;SDS011;40817;51.520;9.954;2022-10-31T06:12:53;14.65;;;5.90;;
11998;SDS011;40817;51.520;9.954;2022-10-31T06:15:21;10.60;;;5.22;;
11998;SDS011;40817;51.520;9.954;2022-10-31T06:17:56;10.15;;;5.65;;
11998;SDS011;40817;51.520;9.954;2022-10-31T06:20:28;9.10;;;5.50;;
11998;SDS011;40817;51.520;9.954;2022-10-31T06:22:58;9.68;;;5.88;;
11998;SDS011;40817;51.520;9.954;2022-10-31T06:25:26;14.98;;;5.60;;
11998;SDS011;40817;51.520;9.954;2022-10-31T06:27:54;12.35;;;6.50;;
11998;SDS011;40817;51.520;9.954;2022-10-31T06:30:22;13.50;;;5.63;;
11998;SDS011;40817;51.520;9.954;2022-10-31T06:32:49;12.23;;;6.95;;
11998;SDS011;40817;51.520;9.954;2022-10-31T06:35:17;16.35;;;5.82;;
11998;SDS011;40817;51.520;9.954;2022-10-31T06:37:51;13.68;;;7.05;;
11998;SDS011;40817;51.520;9.954;2022-10-31T06:40:20;11.63;;;6.45;;
11998;SDS011;40817;51.520;9.954;2022-10-31T06:42:55;11.52;;;6.13;;
11998;SDS011;40817;51.520;9.954;2022-10-31T06:45:24;9.95;;;5.45;;
11998;SDS011;40817;51.520;9.954;2022-10-31T06:47:52;11.30;;;6.20;;
11998;SDS011;40817;51.520;9.954;2022-10-31T06:50:24;10.15;;;5.80;;
11998;SDS011;40817;51.520;9.954;2022-10-31T06:52:53;10.45;;;5.68;;
11998;SDS011;40817;51.520;9.954;2022-10-31T06:55:24;14.93;;;7.40;;
11998;SDS011;40817;51.520;9.954;2022-10-31T06:57:53;12.77;;;6.28;;
11998;SDS011;40817;51.520;9.954;2022-10-31T07:00:22;15.93;;;7.40;;
11998;SDS011;40817;51.520;9.954;2022-10-31T07:02:55;14.60;;;7.47;;
11998;SDS011;40817;51.520;9.954;2022-10-31T07:05:25;13.70;;;6.05;;
11998;SDS011;40817;51.520;9.954;2022-10-31T07:07:55;12.82;;;6.75;;
11998;SDS011;40817;51.520;9.954;2022-10-31T07:10:26;13.70;;;7.88;;
11998;SDS011;40817;51.520;9.954;2022-10-31T07:12:59;13.65;;;6.47;;
11998;SDS011;40817;51.520;9.954;2022-10-31T07:15:30;10.65;;;6.57;;
11998;SDS011;40817;51.520;9.954;2022-10-31T07:18:02;12.50;;;6.30;;
11998;SDS011;40817;51.520;9.954;2022-10-31T07:20:31;11.90;;;6.07;;
11998;SDS011;40817;51.520;9.954;2022-10-31T07:23:01;10.00;;;5.43;;
11998;SDS011;40817;51.520;9.954;2022-10-31T07:25:28;8.10;;;5.03;;
11998;SDS011;40817;51.520;9.954;2022-10-31T07:27:56;11.65;;;5.18;;
11998;SDS011;40817;51.520;9.954;2022-10-31T07:30:24;12.13;;;6.40;;
11998;SDS011;40817;51.520;9.954;2022-10-31T07:32:51;9.63;;;5.80;;
11998;SDS011;40817;51.520;9.954;2022-10-31T07:35:22;11.45;;;5.35;;
11998;SDS011;40817;51.520;9.954;2022-10-31T07:37:52;8.98;;;4.95;;
11998;SDS011;40817;51.520;9.954;2022-10-31T07:40:22;10.52;;;5.05;;
11998;SDS011;40817;51.520;9.954;2022-10-31T07:42:51;9.02;;;5.05;;
11998;SDS011;40817;51.520;9.954;2022-10-31T07:45:20;13.65;;;5.45;;
11998;SDS011;40817;51.520;9.954;2022-10-31T07:47:48;13.45;;;6.10;;
11998;SDS011;40817;51.520;9.954;2022-10-31T07:50:19;13.85;;;5.55;;
11998;SDS011;40817;51.520;9.954;2022-10-31T07:52:57;13.13;;;6.22;;
11998;SDS011;40817;51.520;9.954;2022-10-31T07:55:27;11.38;;;5.55;;
11998;SDS011;40817;51.520;9.954;2022-10-31T07:57:56;15.75;;;5.95;;
11998;SDS011;40817;51.520;9.954;2022-10-31T08:00:25;9.43;;;5.13;;
11998;SDS011;40817;51.520;9.954;2022-10-31T08:02:57;9.00;;;5.75;;
11998;SDS011;40817;51.520;9.954;2022-10-31T08:05:26;11.07;;;5.13;;
11998;SDS011;40817;51.520;9.954;2022-10-31T08:07:54;12.13;;;5.10;;
11998;SDS011;40817;51.520;9.954;2022-10-31T08:10:23;11.32;;;5.60;;
11998;SDS011;40817;51.520;9.954;2022-10-31T08:12:56;10.90;;;5.13;;
11998;SDS011;40817;51.520;9.954;2022-10-31T08:15:26;10.82;;;4.38;;
11998;SDS011;40817;51.520;9.954;2022-10-31T08:17:54;9.38;;;4.85;;
11998;SDS011;40817;51.520;9.954;2022-10-31T08:20:22;13.48;;;5.00;;
11998;SDS011;40817;51.520;9.954;2022-10-31T08:22:56;11.88;;;5.28;;
11998;SDS011;40817;51.520;9.954;2022-10-31T08:25:26;11.80;;;5.93;;
11998;SDS011;40817;51.520;9.954;2022-10-31T08:27:58;10.18;;;4.93;;
11998;SDS011;40817;51.520;9.954;2022-10-31T08:30:26;12.43;;;6.32;;
11998;SDS011;40817;51.520;9.954;2022-10-31T08:32:59;10.73;;;5.85;;
11998;SDS011;40817;51.520;9.954;2022-10-31T08:35:29;10.50;;;5.10;;
11998;SDS011;40817;51.520;9.954;2022-10-31T08:37:57;16.40;;;5.88;;
11998;SDS011;40817;51.520;9.954;2022-10-31T08:40:25;12.55;;;6.25;;
11998;SDS011;40817;51.520;9.954;2022-10-31T08:42:55;10.63;;;5.95;;
11998;SDS011;40817;51.520;9.954;2022-10-31T08:45:26;15.32;;;6.28;;
11998;SDS011;40817;51.520;9.954;2022-10-31T08:47:57;15.13;;;7.10;;
11998;SDS011;40817;51.520;9.954;2022-10-31T08:50:26;12.38;;;6.85;;
11998;SDS011;40817;51.520;9.954;2022-10-31T08:52:59;10.50;;;6.25;;
11998;SDS011;40817;51.520;9.954;2022-10-31T08:55:27;13.05;;;6.07;;
11998;SDS011;40817;51.520;9.954;2022-10-31T08:57:55;15.63;;;7.15;;
11998;SDS011;40817;51.520;9.954;2022-10-31T09:00:24;13.02;;;6.65;;
11998;SDS011;40817;51.520;9.954;2022-10-31T09:02:55;12.95;;;7.38;;
11998;SDS011;40817;51.520;9.954;2022-10-31T09:05:24;11.80;;;6.45;;
11998;SDS011;40817;51.520;9.954;2022-10-31T09:07:54;11.95;;;6.85;;
11998;SDS011;40817;51.520;9.954;2022-10-31T09:10:23;11.95;;;7.07;;
11998;SDS011;40817;51.520;9.954;2022-10-31T09:12:54;15.23;;;7.30;;
11998;SDS011;40817;51.520;9.954;2022-10-31T09:15:24;14.77;;;7.57;;
11998;SDS011;40817;51.520;9.954;2022-10-31T09:17:53;13.80;;;7.25;;
11998;SDS011;40817;51.520;9.954;2022-10-31T09:20:21;15.75;;;7.53;;
11998;SDS011;40817;51.520;9.954;2022-10-31T09:22:54;12.55;;;7.13;;
11998;SDS011;40817;51.520;9.954;2022-10-31T09:25:23;13.75;;;7.32;;
11998;SDS011;40817;51.520;9.954;2022-10-31T09:27:51;18.48;;;7.40;;
11998;SDS011;40817;51.520;9.954;2022-10-31T09:30:22;13.63;;;7.25;;
11998;SDS011;40817;51.520;9.954;2022-10-31T09:32:54;12.38;;;7.72;;
11998;SDS011;40817;51.520;9.954;2022-10-31T09:35:23;14.95;;;7.47;;
11998;SDS011;40817;51.520;9.954;2022-10-31T09:37:53;14.43;;;7.85;;
11998;SDS011;40817;51.520;9.954;2022-10-31T09:40:21;13.05;;;7.38;;
11998;SDS011;40817;51.520;9.954;2022-10-31T09:42:54;13.05;;;7.72;;
11998;SDS011;40817;51.520;9.954;2022-10-31T09:45:36;17.23;;;8.27;;
11998;SDS011;40817;51.520;9.954;2022-10-31T09:48:24;18.85;;;7.75;;
11998;SDS011;40817;51.520;9.954;2022-10-31T09:51:10;15.82;;;8.32;;
11998;SDS011;40817;51.520;9.954;2022-10-31T09:53:44;15.50;;;8.98;;
11998;SDS011;40817;51.520;9.954;2022-10-31T09:56:18;20.10;;;8.65;;
11998;SDS011;40817;51.520;9.954;2022-10-31T09:58:50;15.95;;;8.30;;
11998;SDS011;40817;51.520;9.954;2022-10-31T10:01:39;17.55;;;9.57;;
11998;SDS011;40817;51.520;9.954;2022-10-31T10:04:17;19.17;;;9.25;;
11998;SDS011;40817;51.520;9.954;2022-10-31T10:07:05;20.45;;;9.27;;
11998;SDS011;40817;51.520;9.954;2022-10-31T10:09:42;18.55;;;8.60;;
11998;SDS011;40817;51.520;9.954;2022-10-31T10:12:13;17.98;;;8.35;;
11998;SDS011;40817;51.520;9.954;2022-10-31T10:14:59;19.27;;;9.18;;
11998;SDS011;40817;51.520;9.954;2022-10-31T10:18:01;21.40;;;9.77;;
11998;SDS011;40817;51.520;9.954;2022-10-31T10:20:42;20.27;;;9.50;;
11998;SDS011;40817;51.520;9.954;2022-10-31T10:23:28;21.20;;;10.18;;
11998;SDS011;40817;51.520;9.954;2022-10-31T10:26:13;24.73;;;11.18;;
11998;SDS011;40817;51.520;9.954;2022-10-31T10:28:47;21.42;;;11.45;;
11998;SDS011;40817;51.520;9.954;2022-10-31T10:31:21;18.75;;;9.93;;
11998;SDS011;40817;51.520;9.954;2022-10-31T10:34:01;21.10;;;11.43;;
11998;SDS011;40817;51.520;9.954;2022-10-31T10:36:40;21.40;;;10.93;;
11998;SDS011;40817;51.520;9.954;2022-10-31T10:39:14;20.23;;;10.85;;
11998;SDS011;40817;51.520;9.954;2022-10-31T10:41:49;23.67;;;12.43;;
11998;SDS011;40817;51.520;9.954;2022-10-31T10:44:35;19.75;;;11.43;;
11998;SDS011;40817;51.520;9.954;2022-10-31T10:47:27;18.00;;;9.68;;
11998;SDS011;40817;51.520;9.954;2022-10-31T10:50:09;22.02;;;12.52;;
11998;SDS011;40817;51.520;9.954;2022-10-31T10:52:46;21.00;;;10.98;;
11998;SDS011;40817;51.520;9.954;2022-10-31T10:55:27;25.17;;;11.35;;
11998;SDS011;40817;51.520;9.954;2022-10-31T10:58:03;25.77;;;12.32;;
11998;SDS011;40817;51.520;9.954;2022-10-31T11:00:34;20.90;;;11.52;;
11998;SDS011;40817;51.520;9.954;2022-10-31T11:03:07;18.92;;;11.23;;
11998;SDS011;40817;51.520;9.954;2022-10-31T11:05:37;20.85;;;11.18;;
11998;SDS011;40817;51.520;9.954;2022-10-31T11:08:11;18.98;;;12.13;;
11998;SDS011;40817;51.520;9.954;2022-10-31T11:10:58;25.15;;;11.20;;
11998;SDS011;40817;51.520;9.954;2022-10-31T11:13:28;22.45;;;10.90;;
11998;SDS011;40817;51.520;9.954;2022-10-31T11:15:59;18.73;;;10.73;;
11998;SDS011;40817;51.520;9.954;2022-10-31T11:18:30;24.40;;;11.82;;
11998;SDS011;40817;51.520;9.954;2022-10-31T11:21:17;26.17;;;12.27;;
11998;SDS011;40817;51.520;9.954;2022-10-31T11:23:50;21.80;;;12.07;;
11998;SDS011;40817;51.520;9.954;2022-10-31T11:26:28;21.40;;;12.13;;
11998;SDS011;40817;51.520;9.954;2022-10-31T11:28:56;24.73;;;12.73;;
11998;SDS011;40817;51.520;9.954;2022-10-31T11:31:25;21.92;;;11.63;;
11998;SDS011;40817;51.520;9.954;2022-10-31T11:33:55;23.45;;;12.18;;
11998;SDS011;40817;51.520;9.954;2022-10-31T11:36:29;28.98;;;12.80;;
11998;SDS011;40817;51.520;9.954;2022-10-31T11:38:59;24.83;;;13.13;;
11998;SDS011;40817;51.520;9.954;2022-10-31T11:41:40;26.35;;;14.00;;
11998;SDS011;40817;51.520;9.954;2022-10-31T11:44:10;25.50;;;11.77;;
11998;SDS011;40817;51.520;9.954;2022-10-31T11:46:43;25.85;;;12.55;;
11998;SDS011;40817;51.520;9.954;2022-10-31T11:49:15;24.17;;;14.32;;
11998;SDS011;40817;51.520;9.954;2022-10-31T11:51:49;22.45;;;13.27;;
11998;SDS011;40817;51.520;9.954;2022-10-31T11:54:23;26.90;;;13.10;;
11998;SDS011;40817;51.520;9.954;2022-10-31T11:56:56;20.63;;;13.10;;
11998;SDS011;40817;51.520;9.954;2022-10-31T11:59:26;22.95;;;13.45;;
11998;SDS011;40817;51.520;9.954;2022-10-31T12:01:57;21.67;;;13.32;;
11998;SDS011;40817;51.520;9.954;2022-10-31T12:04:29;22.92;;;13.73;;
11998;SDS011;40817;51.520;9.954;2022-10-31T12:07:07;19.80;;;11.35;;
11998;SDS011;40817;51.520;9.954;2022-10-31T12:09:35;24.65;;;13.57;;
11998;SDS011;40817;51.520;9.954;2022-10-31T12:12:10;25.00;;;12.88;;
11998;SDS011;40817;51.520;9.954;2022-10-31T12:15:12;22.75;;;12.13;;
11998;SDS011;40817;51.520;9.954;2022-10-31T12:18:28;23.30;;;11.15;;
11998;SDS011;40817;51.520;9.954;2022-10-31T12:21:39;20.63;;;11.75;;
11998;SDS011;40817;51.520;9.954;2022-10-31T12:24:34;20.23;;;12.52;;
11998;SDS011;40817;51.520;9.954;2022-10-31T12:27:35;26.88;;;12.13;;
11998;SDS011;40817;51.520;9.954;2022-10-31T12:30:52;25.05;;;13.63;;
11998;SDS011;40817;51.520;9.954;2022-10-31T12:33:41;26.02;;;12.95;;
11998;SDS011;40817;51.520;9.954;2022-10-31T12:36:27;21.70;;;12.15;;
11998;SDS011;40817;51.520;9.954;2022-10-31T12:42:08;22.55;;;12.73;;
11998;SDS011;40817;51.520;9.954;2022-10-31T12:44:57;24.85;;;12.95;;
11998;SDS011;40817;51.520;9.954;2022-10-31T12:48:10;27.90;;;13.73;;
11998;SDS011;40817;51.520;9.954;2022-10-31T12:51:31;24.88;;;12.75;;
11998;SDS011;40817;51.520;9.954;2022-10-31T12:54:20;28.70;;;13.30;;
11998;SDS011;40817;51.520;9.954;2022-10-31T12:57:22;26.95;;;12.65;;
11998;SDS011;40817;51.520;9.954;2022-10-31T12:59:57;25.70;;;12.77;;
11998;SDS011;40817;51.520;9.954;2022-10-31T13:02:31;24.23;;;12.63;;
11998;SDS011;40817;51.520;9.954;2022-10-31T13:05:11;21.38;;;12.27;;
11998;SDS011;40817;51.520;9.954;2022-10-31T13:07:49;22.38;;;11.75;;
11998;SDS011;40817;51.520;9.954;2022-10-31T13:10:25;21.88;;;11.40;;
11998;SDS011;40817;51.520;9.954;2022-10-31T13:13:00;20.83;;;12.02;;
11998;SDS011;40817;51.520;9.954;2022-10-31T13:15:41;24.70;;;12.23;;
11998;SDS011;40817;51.520;9.954;2022-10-31T13:18:21;21.45;;;11.98;;
11998;SDS011;40817;51.520;9.954;2022-10-31T13:20:57;23.30;;;12.05;;
11998;SDS011;40817;51.520;9.954;2022-10-31T13:23:31;21.20;;;12.13;;
11998;SDS011;40817;51.520;9.954;2022-10-31T13:26:03;17.77;;;11.25;;
11998;SDS011;40817;51.520;9.954;2022-10-31T13:28:40;21.95;;;10.60;;
11998;SDS011;40817;51.520;9.954;2022-10-31T13:31:15;17.90;;;10.88;;
11998;SDS011;40817;51.520;9.954;2022-10-31T13:33:43;23.13;;;11.02;;
11998;SDS011;40817;51.520;9.954;2022-10-31T13:36:19;27.85;;;12.13;;
11998;SDS011;40817;51.520;9.954;2022-10-31T13:38:59;23.75;;;11.20;;
11998;SDS011;40817;51.520;9.954;2022-10-31T13:41:44;21.52;;;11.50;;
11998;SDS011;40817;51.520;9.954;2022-10-31T13:44:18;23.30;;;10.52;;
11998;SDS011;40817;51.520;9.954;2022-10-31T13:46:50;22.35;;;12.55;;
11998;SDS011;40817;51.520;9.954;2022-10-31T13:49:35;26.25;;;12.88;;
11998;SDS011;40817;51.520;9.954;2022-10-31T13:52:11;21.80;;;10.68;;
11998;SDS011;40817;51.520;9.954;2022-10-31T13:54:43;18.30;;;11.30;;
11998;SDS011;40817;51.520;9.954;2022-10-31T13:57:19;21.92;;;11.35;;
11998;SDS011;40817;51.520;9.954;2022-10-31T14:00:05;27.02;;;13.15;;
11998;SDS011;40817;51.520;9.954;2022-10-31T14:05:23;26.58;;;12.00;;
11998;SDS011;40817;51.520;9.954;2022-10-31T14:07:53;24.85;;;11.95;;
11998;SDS011;40817;51.520;9.954;2022-10-31T14:10:25;22.98;;;12.00;;
11998;SDS011;40817;51.520;9.954;2022-10-31T14:13:04;21.85;;;11.88;;
11998;SDS011;40817;51.520;9.954;2022-10-31T14:15:39;22.27;;;12.75;;
11998;SDS011;40817;51.520;9.954;2022-10-31T14:18:21;27.35;;;11.43;;
11998;SDS011;40817;51.520;9.954;2022-10-31T14:20:51;22.67;;;12.68;;
11998;SDS011;40817;51.520;9.954;2022-10-31T14:23:31;21.02;;;11.93;;
11998;SDS011;40817;51.520;9.954;2022-10-31T14:26:19;23.15;;;11.20;;
11998;SDS011;40817;51.520;9.954;2022-10-31T14:29:00;29.77;;;13.15;;
11998;SDS011;40817;51.520;9.954;2022-10-31T14:31:53;23.02;;;11.23;;
11998;SDS011;40817;51.520;9.954;2022-10-31T14:34:28;25.45;;;12.45;;
11998;SDS011;40817;51.520;9.954;2022-10-31T14:40:39;19.35;;;9.88;;
11998;SDS011;40817;51.520;9.954;2022-10-31T14:44:13;24.55;;;11.27;;
11998;SDS011;40817;51.520;9.954;2022-10-31T14:47:15;21.65;;;10.57;;
11998;SDS011;40817;51.520;9.954;2022-10-31T14:50:05;21.05;;;10.43;;
11998;SDS011;40817;51.520;9.954;2022-10-31T14:53:05;19.17;;;10.48;;
11998;SDS011;40817;51.520;9.954;2022-10-31T14:55:45;20.38;;;9.73;;
11998;SDS011;40817;51.520;9.954;2022-10-31T14:58:20;21.25;;;9.43;;
11998;SDS011;40817;51.520;9.954;2022-10-31T15:01:01;20.25;;;9.93;;
11998;SDS011;40817;51.520;9.954;2022-10-31T15:03:31;18.10;;;8.85;;
11998;SDS011;40817;51.520;9.954;2022-10-31T15:06:09;22.13;;;9.83;;
11998;SDS011;40817;51.520;9.954;2022-10-31T15:08:44;22.52;;;10.57;;
11998;SDS011;40817;51.520;9.954;2022-10-31T15:11:16;21.17;;;9.70;;
11998;SDS011;40817;51.520;9.954;2022-10-31T15:13:50;18.17;;;9.50;;
11998;SDS011;40817;51.520;9.954;2022-10-31T15:16:26;19.05;;;8.85;;
11998;SDS011;40817;51.520;9.954;2022-10-31T15:19:06;21.85;;;9.65;;
11998;SDS011;40817;51.520;9.954;2022-10-31T15:21:42;16.42;;;8.10;;
11998;SDS011;40817;51.520;9.954;2022-10-31T15:24:12;18.77;;;8.40;;
11998;SDS011;40817;51.520;9.954;2022-10-31T15:26:44;19.80;;;7.63;;